createdAt,value
2017-12-13T00:00:39.703Z,100447.05
2017-12-13T00:01:45.629Z,100449.80
2017-12-13T00:02:51.607Z,100445.48
2017-12-13T00:03:57.554Z,100448.94
2017-12-13T00:05:07.695Z,100452.42
2017-12-13T00:06:14.766Z,100452.47
2017-12-13T00:07:20.987Z,100450.38
2017-12-13T00:08:27.192Z,100454.63
2017-12-13T00:09:33.395Z,100456.94
2017-12-13T00:10:39.559Z,100450.92
2017-12-13T00:11:45.773Z,100455.64
2017-12-13T00:12:51.978Z,100454.37
2017-12-13T00:13:57.918Z,100452.98
2017-12-13T00:15:04.136Z,100462.41
2017-12-13T00:16:10.601Z,100464.16
2017-12-13T00:17:16.773Z,100455.95
2017-12-13T00:18:28.025Z,100461.22
2017-12-13T00:19:39.486Z,100466.33
2017-12-13T00:20:49.414Z,100465.93
2017-12-13T00:21:55.620Z,100469.81
2017-12-13T00:23:01.768Z,100464.16
2017-12-13T00:24:07.977Z,100463.70
2017-12-13T00:25:14.187Z,100464.70
2017-12-13T00:26:20.415Z,100460.81
2017-12-13T00:27:26.622Z,100461.18
2017-12-13T00:28:32.795Z,100462.08
2017-12-13T00:29:38.998Z,100456.43
2017-12-13T00:30:45.663Z,100456.46
2017-12-13T00:31:51.838Z,100459.48
2017-12-13T00:32:58.067Z,100459.05
2017-12-13T00:34:04.256Z,100466.86
2017-12-13T00:35:10.491Z,100462.15
2017-12-13T00:36:21.767Z,100463.05
2017-12-13T00:37:33.880Z,100465.60
2017-12-13T00:38:40.229Z,100469.42
2017-12-13T00:39:47.408Z,100465.10
2017-12-13T00:40:53.646Z,100472.41
2017-12-13T00:41:59.864Z,100473.73
2017-12-13T00:43:06.062Z,100472.84
2017-12-13T00:44:12.250Z,100461.21
2017-12-13T00:45:18.159Z,100465.93
2017-12-13T00:46:24.385Z,100465.93
2017-12-13T00:47:31.382Z,100466.33
2017-12-13T00:48:37.564Z,100468.45
2017-12-13T00:49:43.753Z,100470.61
2017-12-13T00:50:49.990Z,100472.41
2017-12-13T00:51:55.931Z,100467.69
2017-12-13T00:53:08.010Z,100475.47
2017-12-13T00:54:14.189Z,100465.93
2017-12-13T00:55:25.274Z,100471.94
2017-12-13T00:56:31.502Z,100466.40
2017-12-13T00:57:37.703Z,100466.90
2017-12-13T00:58:43.913Z,100468.20
2017-12-13T00:59:50.106Z,100473.38
2017-12-13T01:00:56.338Z,100473.41
2017-12-13T01:02:02.568Z,100474.70
2017-12-13T01:03:09.725Z,100471.72
2017-12-13T01:04:15.902Z,100470.92
2017-12-13T01:05:21.792Z,100475.17
2017-12-13T01:06:27.979Z,100473.45
2017-12-13T01:07:35.914Z,100474.34
2017-12-13T01:08:48.204Z,100478.16
2017-12-13T01:09:54.397Z,100484.20
2017-12-13T01:11:00.534Z,100474.87
2017-12-13T01:12:06.769Z,100474.84
2017-12-13T01:13:12.950Z,100478.78
2017-12-13T01:14:19.190Z,100478.35
2017-12-13T01:15:25.360Z,100480.87
2017-12-13T01:16:31.519Z,100488.22
2017-12-13T01:17:37.683Z,100481.28
2017-12-13T01:18:45.728Z,100487.72
2017-12-13T01:19:51.972Z,100485.13
2017-12-13T01:20:58.205Z,100481.68
2017-12-13T01:22:04.419Z,100485.20
2017-12-13T01:23:10.638Z,100487.35
2017-12-13T01:24:16.809Z,100480.84
2017-12-13T01:25:23.061Z,100482.20
2017-12-13T01:26:29.290Z,100482.23
2017-12-13T01:27:35.459Z,100479.25
2017-12-13T01:28:47.409Z,100478.78
2017-12-13T01:29:53.580Z,100475.36
2017-12-13T01:30:59.743Z,100475.42
2017-12-13T01:32:07.777Z,100478.02
2017-12-13T01:33:14.746Z,100479.64
2017-12-13T01:34:20.986Z,100485.29
2017-12-13T01:35:27.210Z,100485.34
2017-12-13T01:36:33.419Z,100488.37
2017-12-13T01:37:39.617Z,100481.49
2017-12-13T01:38:45.814Z,100485.41
2017-12-13T01:39:52.021Z,100482.84
2017-12-13T01:40:58.192Z,100487.64
2017-12-13T01:42:04.711Z,100485.94
2017-12-13T01:43:10.896Z,100486.34
2017-12-13T01:44:17.123Z,100483.38
2017-12-13T01:45:23.286Z,100486.43
2017-12-13T01:46:29.510Z,100480.84
2017-12-13T01:47:35.351Z,100480.42
2017-12-13T01:48:41.507Z,100477.83
2017-12-13T01:49:47.710Z,100480.41
2017-12-13T01:50:53.576Z,100478.66
2017-12-13T01:51:59.832Z,100476.16
2017-12-13T01:53:06.061Z,100477.86
2017-12-13T01:54:12.250Z,100471.84
2017-12-13T01:55:18.422Z,100474.83
2017-12-13T01:56:31.020Z,100482.21
2017-12-13T01:57:37.261Z,100477.52
2017-12-13T01:58:43.488Z,100480.92
2017-12-13T01:59:49.314Z,100484.36
2017-12-13T02:00:54.854Z,100477.87
2017-12-13T02:02:03.121Z,100479.64
2017-12-13T02:03:09.279Z,100478.36
2017-12-13T02:04:15.473Z,100474.91
2017-12-13T02:05:21.042Z,100474.04
2017-12-13T02:06:26.885Z,100468.84
2017-12-13T02:07:34.188Z,100465.37
2017-12-13T02:08:40.048Z,100461.48
2017-12-13T02:09:45.907Z,100463.64
2017-12-13T02:10:52.158Z,100463.59
2017-12-13T02:11:58.002Z,100458.41
2017-12-13T02:13:04.295Z,100461.08
2017-12-13T02:14:10.502Z,100456.36
2017-12-13T02:15:16.758Z,100467.55
2017-12-13T02:16:22.608Z,100471.81
2017-12-13T02:17:28.804Z,100468.41
2017-12-13T02:18:35.028Z,100474.53
2017-12-13T02:19:40.873Z,100475.81
2017-12-13T02:20:46.406Z,100477.08
2017-12-13T02:21:52.301Z,100471.02
2017-12-13T02:24:09.165Z,100470.16
2017-12-13T02:25:14.984Z,100472.72
2017-12-13T02:26:21.175Z,100467.93
2017-12-13T02:27:27.108Z,100469.61
2017-12-13T02:28:33.710Z,100464.42
2017-12-13T02:29:39.892Z,100464.86
2017-12-13T02:30:46.079Z,100457.07
2017-12-13T02:31:52.263Z,100459.60
2017-12-13T02:32:58.427Z,100463.00
2017-12-13T02:34:04.676Z,100458.16
2017-12-13T02:35:10.911Z,100464.66
2017-12-13T02:36:17.251Z,100465.98
2017-12-13T02:37:23.438Z,100460.75
2017-12-13T02:38:30.229Z,100462.88
2017-12-13T02:39:36.413Z,100461.52
2017-12-13T02:40:53.787Z,100462.41
2017-12-13T02:41:59.745Z,100460.22
2017-12-13T02:43:05.997Z,100464.97
2017-12-13T02:44:12.201Z,100463.65
2017-12-13T02:45:20.947Z,100466.14
2017-12-13T02:46:27.179Z,100462.69
2017-12-13T02:47:33.565Z,100462.19
2017-12-13T02:48:39.763Z,100468.30
2017-12-13T02:49:45.942Z,100461.82
2017-12-13T02:50:52.111Z,100460.53
2017-12-13T02:51:58.458Z,100464.77
2017-12-13T02:53:04.634Z,100462.66
2017-12-13T02:54:10.848Z,100463.11
2017-12-13T02:55:16.697Z,100459.52
2017-12-13T02:56:22.227Z,100466.83
2017-12-13T02:57:27.515Z,100457.87
2017-12-13T02:58:33.443Z,100458.73
2017-12-13T02:59:38.729Z,100458.80
2017-12-13T03:00:45.148Z,100463.15
2017-12-13T03:01:51.087Z,100461.42
2017-12-13T03:02:57.536Z,100461.89
2017-12-13T03:04:03.456Z,100454.61
2017-12-13T03:05:09.036Z,100466.30
2017-12-13T03:06:14.937Z,100462.34
2017-12-13T03:07:20.583Z,100466.23
2017-12-13T03:08:26.838Z,100461.95
2017-12-13T03:09:33.028Z,100458.96
2017-12-13T03:10:39.231Z,100461.18
2017-12-13T03:11:45.497Z,100465.06
2017-12-13T03:12:51.428Z,100462.05
2017-12-13T03:13:57.357Z,100461.30
2017-12-13T03:15:03.255Z,100457.91
2017-12-13T03:16:09.471Z,100463.92
2017-12-13T03:17:15.417Z,100458.36
2017-12-13T03:18:21.322Z,100457.09
2017-12-13T03:19:27.634Z,100457.06
2017-12-13T03:20:33.152Z,100456.16
2017-12-13T03:21:39.093Z,100451.80
2017-12-13T03:22:45.415Z,100447.06
2017-12-13T03:23:51.680Z,100444.41
2017-12-13T03:24:57.670Z,100444.81
2017-12-13T03:26:03.852Z,100443.52
2017-12-13T03:27:09.710Z,100446.97
2017-12-13T03:28:15.895Z,100444.78
2017-12-13T03:29:22.114Z,100449.99
2017-12-13T03:30:28.339Z,100445.67
2017-12-13T03:31:34.504Z,100447.84
2017-12-13T03:32:40.381Z,100445.70
2017-12-13T03:33:46.463Z,100444.78
2017-12-13T03:34:52.674Z,100446.14
2017-12-13T03:35:58.610Z,100441.02
2017-12-13T03:37:04.796Z,100445.70
2017-12-13T03:38:10.998Z,100444.81
2017-12-13T03:39:17.214Z,100445.73
2017-12-13T03:40:23.437Z,100448.33
2017-12-13T03:41:29.382Z,100445.31
2017-12-13T03:42:35.694Z,100441.88
2017-12-13T03:43:41.907Z,100449.27
2017-12-13T03:44:48.091Z,100447.09
2017-12-13T03:45:54.264Z,100443.67
2017-12-13T03:47:00.479Z,100441.45
2017-12-13T03:48:06.695Z,100444.05
2017-12-13T03:49:12.939Z,100442.41
2017-12-13T03:50:19.138Z,100443.30
2017-12-13T03:51:25.365Z,100445.96
2017-12-13T03:52:31.583Z,100444.20
2017-12-13T03:53:37.766Z,100443.78
2017-12-13T03:54:43.944Z,100439.06
2017-12-13T03:55:50.180Z,100439.06
2017-12-13T03:56:56.370Z,100436.07
2017-12-13T03:58:02.597Z,100437.31
2017-12-13T03:59:08.821Z,100438.58
2017-12-13T04:00:15.039Z,100437.39
2017-12-13T04:01:21.167Z,100436.95
2017-12-13T04:02:27.444Z,100440.00
2017-12-13T04:03:33.695Z,100438.63
2017-12-13T04:04:39.922Z,100439.11
2017-12-13T04:05:46.233Z,100438.69
2017-12-13T04:06:52.454Z,100438.63
2017-12-13T04:07:58.657Z,100437.37
2017-12-13T04:09:03.762Z,100442.54
2017-12-13T04:10:09.677Z,100439.03
2017-12-13T04:11:15.858Z,100440.38
2017-12-13T04:12:22.058Z,100439.95
2017-12-13T04:13:28.312Z,100443.78
2017-12-13T04:14:34.485Z,100448.09
2017-12-13T04:15:40.751Z,100448.55
2017-12-13T04:16:46.653Z,100441.24
2017-12-13T04:17:52.882Z,100445.95
2017-12-13T04:18:59.105Z,100449.78
2017-12-13T04:20:05.275Z,100441.65
2017-12-13T04:21:11.523Z,100438.66
2017-12-13T04:22:17.770Z,100437.80
2017-12-13T04:23:24.013Z,100436.93
2017-12-13T04:24:30.218Z,100439.95
2017-12-13T04:25:36.401Z,100439.49
2017-12-13T04:26:42.586Z,100444.64
2017-12-13T04:27:48.838Z,100438.27
2017-12-13T04:28:55.087Z,100446.39
2017-12-13T04:30:01.338Z,100440.81
2017-12-13T04:31:07.506Z,100441.59
2017-12-13T04:32:13.389Z,100444.19
2017-12-13T04:33:19.583Z,100440.30
2017-12-13T04:34:26.499Z,100436.02
2017-12-13T04:35:32.848Z,100439.55
2017-12-13T04:36:39.047Z,100434.38
2017-12-13T04:37:45.291Z,100428.33
2017-12-13T04:38:51.476Z,100431.70
2017-12-13T04:39:57.687Z,100426.63
2017-12-13T04:41:03.922Z,100427.47
2017-12-13T04:42:10.119Z,100422.67
2017-12-13T04:43:16.350Z,100432.23
2017-12-13T04:44:22.564Z,100430.05
2017-12-13T04:45:28.735Z,100427.90
2017-12-13T04:46:35.018Z,100428.73
2017-12-13T04:47:40.922Z,100426.61
2017-12-13T04:48:47.148Z,100430.00
2017-12-13T04:49:59.605Z,100420.14
2017-12-13T04:51:05.893Z,100423.19
2017-12-13T04:52:12.103Z,100424.02
2017-12-13T04:53:18.279Z,100411.54
2017-12-13T04:54:24.500Z,100414.13
2017-12-13T04:55:30.763Z,100417.98
2017-12-13T04:56:36.681Z,100403.75
2017-12-13T04:57:42.663Z,100402.06
2017-12-13T04:58:48.904Z,100404.67
2017-12-13T04:59:55.133Z,100402.95
2017-12-13T05:01:01.541Z,100405.99
2017-12-13T05:02:07.734Z,100406.87
2017-12-13T05:03:14.023Z,100401.30
2017-12-13T05:04:21.099Z,100399.59
2017-12-13T05:05:27.432Z,100399.59
2017-12-13T05:06:33.698Z,100397.04
2017-12-13T05:07:39.855Z,100394.02
2017-12-13T05:08:46.093Z,100390.20
2017-12-13T05:09:52.025Z,100388.89
2017-12-13T05:10:57.935Z,100387.98
2017-12-13T05:12:03.846Z,100382.45
2017-12-13T05:13:09.715Z,100387.20
2017-12-13T05:14:15.527Z,100393.18
2017-12-13T05:15:21.405Z,100391.48
2017-12-13T05:16:27.344Z,100390.57
2017-12-13T05:17:33.519Z,100390.63
2017-12-13T05:18:39.697Z,100393.66
2017-12-13T05:19:45.543Z,100383.73
2017-12-13T05:20:51.706Z,100393.13
2017-12-13T05:21:57.957Z,100389.28
2017-12-13T05:23:04.235Z,100384.16
2017-12-13T05:24:11.228Z,100388.49
2017-12-13T05:25:17.524Z,100389.33
2017-12-13T05:26:28.802Z,100391.48
2017-12-13T05:27:35.048Z,100390.22
2017-12-13T05:28:41.264Z,100392.80
2017-12-13T05:29:47.499Z,100392.42
2017-12-13T05:30:53.686Z,100400.56
2017-12-13T05:31:59.946Z,100396.24
2017-12-13T05:33:06.130Z,100400.51
2017-12-13T05:34:12.311Z,100399.65
2017-12-13T05:35:18.531Z,100397.49
2017-12-13T05:36:24.781Z,100400.08
2017-12-13T05:37:31.007Z,100393.64
2017-12-13T05:38:37.303Z,100397.55
2017-12-13T05:39:43.517Z,100397.13
2017-12-13T05:40:49.671Z,100400.63
2017-12-13T05:41:55.903Z,100400.99
2017-12-13T05:43:02.047Z,100397.55
2017-12-13T05:44:08.116Z,100400.96
2017-12-13T05:45:14.306Z,100394.91
2017-12-13T05:46:20.532Z,100394.50
2017-12-13T05:47:26.998Z,100393.27
2017-12-13T05:48:33.158Z,100398.02
2017-12-13T05:49:39.475Z,100396.70
2017-12-13T05:50:46.491Z,100391.97
2017-12-13T05:51:54.786Z,100394.53
2017-12-13T05:53:01.295Z,100392.78
2017-12-13T05:54:07.564Z,100393.64
2017-12-13T05:55:13.754Z,100394.50
2017-12-13T05:56:19.995Z,100393.69
2017-12-13T05:57:25.976Z,100388.95
2017-12-13T05:58:34.078Z,100388.53
2017-12-13T05:59:40.357Z,100389.37
2017-12-13T06:00:45.904Z,100383.36
2017-12-13T06:01:52.174Z,100388.56
2017-12-13T06:02:58.496Z,100393.69
2017-12-13T06:04:04.686Z,100387.25
2017-12-13T06:05:10.906Z,100381.69
2017-12-13T06:06:17.115Z,100386.44
2017-12-13T06:07:23.017Z,100389.86
2017-12-13T06:08:29.194Z,100386.39
2017-12-13T06:09:35.385Z,100384.56
2017-12-13T06:10:41.589Z,100385.85
2017-12-13T06:11:47.844Z,100374.65
2017-12-13T06:12:54.014Z,100369.96
2017-12-13T06:14:03.114Z,100368.31
2017-12-13T06:15:09.367Z,100362.25
2017-12-13T06:16:19.589Z,100360.98
2017-12-13T06:17:25.819Z,100360.98
2017-12-13T06:18:32.051Z,100358.83
2017-12-13T06:19:38.230Z,100355.38
2017-12-13T06:20:45.045Z,100349.41
2017-12-13T06:21:51.302Z,100348.54
2017-12-13T06:22:57.489Z,100350.23
2017-12-13T06:24:03.718Z,100350.28
2017-12-13T06:25:09.907Z,100348.14
2017-12-13T06:26:16.082Z,100353.73
2017-12-13T06:27:22.267Z,100352.41
2017-12-13T06:28:28.508Z,100351.14
2017-12-13T06:29:34.710Z,100359.75
2017-12-13T06:30:40.945Z,100357.56
2017-12-13T06:31:47.345Z,100351.09
2017-12-13T06:32:53.268Z,100348.45
2017-12-13T06:33:59.460Z,100355.81
2017-12-13T06:35:05.763Z,100352.84
2017-12-13T06:36:12.033Z,100346.77
2017-12-13T06:37:18.261Z,100352.36
2017-12-13T06:38:24.160Z,100354.11
2017-12-13T06:39:30.343Z,100347.22
2017-12-13T06:40:36.562Z,100349.41
2017-12-13T06:41:42.814Z,100343.34
2017-12-13T06:42:48.996Z,100340.76
2017-12-13T06:43:55.567Z,100333.41
2017-12-13T06:45:01.783Z,100333.41
2017-12-13T06:46:08.019Z,100332.95
2017-12-13T06:47:14.230Z,100332.55
2017-12-13T06:48:20.665Z,100335.96
2017-12-13T06:49:26.970Z,100338.60
2017-12-13T06:50:33.194Z,100337.28
2017-12-13T06:51:39.438Z,100342.48
2017-12-13T06:52:48.464Z,100340.40
2017-12-13T06:53:54.694Z,100342.50
2017-12-13T06:55:00.936Z,100343.37
2017-12-13T06:56:07.228Z,100341.16
2017-12-13T06:57:13.500Z,100348.95
2017-12-13T06:58:19.744Z,100348.86
2017-12-13T06:59:25.957Z,100344.12
2017-12-13T07:00:32.187Z,100347.15
2017-12-13T07:01:38.371Z,100351.00
2017-12-13T07:02:44.547Z,100350.56
2017-12-13T07:03:50.484Z,100345.40
2017-12-13T07:04:56.690Z,100345.42
2017-12-13T07:06:02.936Z,100351.02
2017-12-13T07:07:09.138Z,100348.41
2017-12-13T07:08:15.375Z,100342.40
2017-12-13T07:09:21.571Z,100347.66
2017-12-13T07:10:30.726Z,100349.83
2017-12-13T07:11:36.701Z,100349.37
2017-12-13T07:12:42.873Z,100347.22
2017-12-13T07:13:49.101Z,100345.87
2017-12-13T07:14:55.259Z,100354.06
2017-12-13T07:16:01.468Z,100347.59
2017-12-13T07:17:07.684Z,100351.48
2017-12-13T07:18:13.874Z,100348.86
2017-12-13T07:19:20.122Z,100349.73
2017-12-13T07:20:26.314Z,100344.13
2017-12-13T07:21:32.617Z,100337.28
2017-12-13T07:22:38.806Z,100333.38
2017-12-13T07:23:45.044Z,100338.52
2017-12-13T07:24:51.277Z,100338.12
2017-12-13T07:25:57.469Z,100335.58
2017-12-13T07:27:06.417Z,100329.12
2017-12-13T07:28:12.664Z,100331.70
2017-12-13T07:29:18.582Z,100329.53
2017-12-13T07:30:25.978Z,100330.34
2017-12-13T07:31:31.890Z,100328.19
2017-12-13T07:32:38.180Z,100328.27
2017-12-13T07:33:44.408Z,100326.92
2017-12-13T07:34:50.595Z,100327.38
2017-12-13T07:35:56.783Z,100326.89
2017-12-13T07:37:03.013Z,100325.59
2017-12-13T07:38:09.192Z,100319.59
2017-12-13T07:39:15.399Z,100317.01
2017-12-13T07:40:21.653Z,100312.21
2017-12-13T07:41:27.826Z,100304.42
2017-12-13T07:42:34.041Z,100310.03
2017-12-13T07:43:40.213Z,100307.35
2017-12-13T07:44:49.852Z,100303.91
2017-12-13T07:45:56.102Z,100296.61
2017-12-13T07:47:02.306Z,100298.27
2017-12-13T07:48:09.779Z,100293.47
2017-12-13T07:49:15.935Z,100292.57
2017-12-13T07:50:22.100Z,100293.40
2017-12-13T07:51:28.249Z,100291.97
2017-12-13T07:52:34.437Z,100301.81
2017-12-13T07:53:40.680Z,100291.86
2017-12-13T07:54:46.860Z,100291.90
2017-12-13T07:55:53.039Z,100288.02
2017-12-13T07:56:59.268Z,100287.55
2017-12-13T07:58:05.464Z,100289.23
2017-12-13T07:59:11.707Z,100293.59
2017-12-13T08:00:23.630Z,100294.52
2017-12-13T08:01:29.594Z,100297.94
2017-12-13T08:02:35.766Z,100294.02
2017-12-13T08:03:41.935Z,100296.64
2017-12-13T08:04:48.161Z,100299.66
2017-12-13T08:05:54.409Z,100294.88
2017-12-13T08:07:00.629Z,100290.89
2017-12-13T08:08:06.829Z,100289.59
2017-12-13T08:09:13.023Z,100286.58
2017-12-13T08:10:19.208Z,100292.61
2017-12-13T08:11:25.672Z,100288.14
2017-12-13T08:12:31.894Z,100285.91
2017-12-13T08:13:38.068Z,100286.34
2017-12-13T08:14:44.294Z,100278.77
2017-12-13T08:15:50.265Z,100278.26
2017-12-13T08:16:56.446Z,100273.20
2017-12-13T08:18:02.622Z,100272.69
2017-12-13T08:19:08.922Z,100270.06
2017-12-13T08:20:15.172Z,100263.67
2017-12-13T08:21:21.358Z,100271.44
2017-12-13T08:22:27.550Z,100267.98
2017-12-13T08:23:33.766Z,100264.92
2017-12-13T08:24:40.005Z,100264.88
2017-12-13T08:25:46.190Z,100258.41
2017-12-13T08:26:52.457Z,100249.82
2017-12-13T08:27:58.708Z,100251.47
2017-12-13T08:29:04.612Z,100245.42
2017-12-13T08:30:10.803Z,100246.67
2017-12-13T08:31:17.034Z,100246.11
2017-12-13T08:32:22.910Z,100235.76
2017-12-13T08:33:29.116Z,100239.56
2017-12-13T08:34:35.305Z,100234.41
2017-12-13T08:35:41.518Z,100236.14
2017-12-13T08:36:47.733Z,100232.59
2017-12-13T08:37:53.906Z,100227.86
2017-12-13T08:39:00.081Z,100219.65
2017-12-13T08:40:05.937Z,100219.26
2017-12-13T08:41:12.153Z,100218.40
2017-12-13T08:42:18.389Z,100222.20
2017-12-13T08:43:24.498Z,100220.03
2017-12-13T08:44:30.445Z,100215.15
2017-12-13T08:45:36.281Z,100222.10
2017-12-13T08:46:42.455Z,100216.40
2017-12-13T08:47:48.285Z,100208.66
2017-12-13T08:48:54.104Z,100209.58
2017-12-13T08:50:00.046Z,100206.94
2017-12-13T08:51:06.223Z,100207.27
2017-12-13T08:52:12.452Z,100210.15
2017-12-13T08:53:18.614Z,100210.19
2017-12-13T08:54:24.779Z,100201.18
2017-12-13T08:55:30.958Z,100205.00
2017-12-13T08:56:37.156Z,100202.42
2017-12-13T08:57:43.374Z,100202.36
2017-12-13T08:58:49.595Z,100197.19
2017-12-13T08:59:55.501Z,100192.81
2017-12-13T09:01:01.682Z,100194.05
2017-12-13T09:02:08.423Z,100195.19
2017-12-13T09:03:14.317Z,100190.86
2017-12-13T09:04:20.760Z,100187.35
2017-12-13T09:05:26.969Z,100184.28
2017-12-13T09:06:32.480Z,100184.88
2017-12-13T09:07:42.019Z,100183.47
2017-12-13T09:08:52.242Z,100183.09
2017-12-13T09:09:58.455Z,100177.95
2017-12-13T09:11:04.642Z,100177.52
2017-12-13T09:12:10.838Z,100177.47
2017-12-13T09:13:17.022Z,100182.55
2017-12-13T09:14:23.258Z,100172.17
2017-12-13T09:15:29.447Z,100173.75
2017-12-13T09:16:35.305Z,100174.10
2017-12-13T09:17:40.835Z,100173.56
2017-12-13T09:18:47.088Z,100175.73
2017-12-13T09:19:53.446Z,100176.22
2017-12-13T09:20:59.640Z,100176.75
2017-12-13T09:22:05.944Z,100171.95
2017-12-13T09:23:12.151Z,100170.97
2017-12-13T09:24:18.330Z,100169.13
2017-12-13T09:25:24.204Z,100173.01
2017-12-13T09:26:30.400Z,100166.91
2017-12-13T09:27:36.406Z,100164.36
2017-12-13T09:28:42.598Z,100168.98
2017-12-13T09:29:48.468Z,100168.02
2017-12-13T09:30:54.644Z,100172.45
2017-12-13T09:32:00.883Z,100165.43
2017-12-13T09:33:07.036Z,100171.77
2017-12-13T09:34:13.204Z,100164.67
2017-12-13T09:35:19.419Z,100167.48
2017-12-13T09:36:25.593Z,100154.51
2017-12-13T09:37:31.496Z,100155.67
2017-12-13T09:38:37.700Z,100150.26
2017-12-13T09:39:43.874Z,100147.52
2017-12-13T09:40:50.015Z,100153.44
2017-12-13T09:41:56.200Z,100142.06
2017-12-13T09:43:05.274Z,100140.98
2017-12-13T09:44:11.216Z,100134.41
2017-12-13T09:45:17.063Z,100128.01
2017-12-13T09:46:23.231Z,100131.45
2017-12-13T09:47:29.398Z,100126.41
2017-12-13T09:48:35.648Z,100126.22
2017-12-13T09:49:41.834Z,100117.83
2017-12-13T09:50:47.679Z,100114.00
2017-12-13T09:51:53.519Z,100111.05
2017-12-13T09:52:59.727Z,100113.06
2017-12-13T09:54:05.536Z,100104.50
2017-12-13T09:55:11.706Z,100105.09
2017-12-13T09:56:17.862Z,100105.73
2017-12-13T09:57:26.107Z,100101.66
2017-12-13T09:58:32.355Z,100097.78
2017-12-13T09:59:38.597Z,100090.27
2017-12-13T10:00:44.540Z,100089.76
2017-12-13T10:01:50.390Z,100082.23
2017-12-13T10:02:56.595Z,100080.55
2017-12-13T10:04:02.785Z,100084.70
2017-12-13T10:05:08.946Z,100084.34
2017-12-13T10:06:15.181Z,100077.67
2017-12-13T10:07:21.210Z,100069.23
2017-12-13T10:08:27.383Z,100064.14
2017-12-13T10:09:33.549Z,100068.67
2017-12-13T10:10:39.798Z,100057.58
2017-12-13T10:11:45.981Z,100053.92
2017-12-13T10:12:52.193Z,100053.23
2017-12-13T10:13:58.407Z,100046.11
2017-12-13T10:15:04.035Z,100044.88
2017-12-13T10:16:11.107Z,100043.00
2017-12-13T10:17:17.295Z,100044.39
2017-12-13T10:18:23.448Z,100038.84
2017-12-13T10:19:31.496Z,100027.41
2017-12-13T10:20:37.332Z,100019.20
2017-12-13T10:21:43.518Z,100024.14
2017-12-13T10:22:49.485Z,100013.36
2017-12-13T10:23:55.682Z,100012.09
2017-12-13T10:25:01.905Z,100007.73
2017-12-13T10:26:07.780Z,100003.05
2017-12-13T10:27:14.051Z,100000.61
2017-12-13T10:28:20.293Z,100002.93
2017-12-13T10:29:26.489Z,100006.89
2017-12-13T10:30:32.695Z,100001.28
2017-12-13T10:31:38.921Z,99996.52
2017-12-13T10:32:45.124Z,99991.42
2017-12-13T10:33:51.326Z,99999.54
2017-12-13T10:34:57.515Z,99992.19
2017-12-13T10:36:03.668Z,99995.16
2017-12-13T10:37:09.992Z,99986.47
2017-12-13T10:38:16.156Z,99979.09
2017-12-13T10:39:23.141Z,99975.92
2017-12-13T10:40:29.351Z,99976.44
2017-12-13T10:41:35.568Z,99972.22
2017-12-13T10:42:41.982Z,99976.08
2017-12-13T10:43:48.230Z,99965.19
2017-12-13T10:44:54.169Z,99963.16
2017-12-13T10:46:05.515Z,99958.69
2017-12-13T10:47:11.801Z,99950.44
2017-12-13T10:48:17.965Z,99957.19
2017-12-13T10:49:24.125Z,99947.67
2017-12-13T10:50:30.334Z,99947.08
2017-12-13T10:51:36.491Z,99941.33
2017-12-13T10:52:42.687Z,99939.90
2017-12-13T10:53:48.197Z,99937.20
2017-12-13T10:54:54.454Z,99928.17
2017-12-13T10:56:00.325Z,99922.02
2017-12-13T10:57:06.491Z,99923.91
2017-12-13T10:58:12.742Z,99919.59
2017-12-13T10:59:18.950Z,99925.37
2017-12-13T11:00:24.509Z,99926.88
2017-12-13T11:01:30.078Z,99919.65
2017-12-13T11:02:35.941Z,99922.96
2017-12-13T11:03:41.486Z,99921.90
2017-12-13T11:04:47.660Z,99916.39
2017-12-13T11:05:54.699Z,99914.75
2017-12-13T11:07:00.534Z,99912.05
2017-12-13T11:08:06.036Z,99912.95
2017-12-13T11:09:12.218Z,99904.10
2017-12-13T11:10:18.145Z,99897.77
2017-12-13T11:11:24.414Z,99907.09
2017-12-13T11:12:30.659Z,99909.27
2017-12-13T11:13:37.007Z,99898.66
2017-12-13T11:14:43.181Z,99895.57
2017-12-13T11:15:49.036Z,99891.90
2017-12-13T11:16:55.226Z,99886.91
2017-12-13T11:18:01.662Z,99888.30
2017-12-13T11:19:07.611Z,99884.52
2017-12-13T11:20:15.906Z,99882.51
2017-12-13T11:21:22.079Z,99881.95
2017-12-13T11:22:34.282Z,99876.95
2017-12-13T11:23:40.484Z,99879.75
2017-12-13T11:24:46.354Z,99873.50
2017-12-13T11:25:52.523Z,99876.84
2017-12-13T11:26:58.781Z,99874.19
2017-12-13T11:28:04.247Z,99867.22
2017-12-13T11:29:10.860Z,99864.95
2017-12-13T11:30:16.451Z,99876.53
2017-12-13T11:31:22.375Z,99862.93
2017-12-13T11:32:28.617Z,99854.79
2017-12-13T11:33:34.840Z,99853.80
2017-12-13T11:34:40.640Z,99846.34
2017-12-13T11:35:46.490Z,99841.33
2017-12-13T11:36:54.736Z,99847.21
2017-12-13T11:38:06.908Z,99837.11
2017-12-13T11:39:13.089Z,99836.03
2017-12-13T11:40:19.283Z,99832.05
2017-12-13T11:41:25.504Z,99836.73
2017-12-13T11:42:31.424Z,99826.86
2017-12-13T11:43:37.694Z,99822.81
2017-12-13T11:44:43.858Z,99816.69
2017-12-13T11:45:50.087Z,99814.09
2017-12-13T11:46:59.295Z,99816.25
2017-12-13T11:48:05.491Z,99810.52
2017-12-13T11:49:11.655Z,99808.30
2017-12-13T11:50:17.586Z,99805.28
2017-12-13T11:51:23.410Z,99802.66
2017-12-13T11:52:29.642Z,99797.82
2017-12-13T11:53:35.822Z,99804.31
2017-12-13T11:54:41.654Z,99793.16
2017-12-13T11:55:47.909Z,99794.45
2017-12-13T11:56:53.786Z,99785.34
2017-12-13T11:58:00.034Z,99782.50
2017-12-13T11:59:06.243Z,99786.92
2017-12-13T12:00:11.755Z,99777.72
2017-12-13T12:01:16.959Z,99769.30
2017-12-13T12:02:22.792Z,99779.71
2017-12-13T12:03:28.640Z,99778.41
2017-12-13T12:04:34.915Z,99768.11
2017-12-13T12:05:41.291Z,99766.05
2017-12-13T12:06:47.235Z,99765.63
2017-12-13T12:07:53.105Z,99751.90
2017-12-13T12:08:59.287Z,99758.11
2017-12-13T12:10:05.138Z,99753.83
2017-12-13T12:11:11.301Z,99753.42
2017-12-13T12:12:17.446Z,99746.28
2017-12-13T12:13:23.636Z,99741.26
2017-12-13T12:14:30.226Z,99733.55
2017-12-13T12:15:35.771Z,99735.64
2017-12-13T12:16:41.954Z,99729.78
2017-12-13T12:17:48.123Z,99734.48
2017-12-13T12:18:54.377Z,99725.72
2017-12-13T12:20:00.250Z,99727.94
2017-12-13T12:21:06.503Z,99718.17
2017-12-13T12:22:12.739Z,99706.89
2017-12-13T12:23:18.895Z,99714.57
2017-12-13T12:24:25.132Z,99717.94
2017-12-13T12:25:31.302Z,99709.63
2017-12-13T12:26:37.123Z,99710.47
2017-12-13T12:27:43.292Z,99698.92
2017-12-13T12:28:49.488Z,99699.56
2017-12-13T12:29:55.734Z,99702.09
2017-12-13T12:31:01.964Z,99690.77
2017-12-13T12:32:08.192Z,99682.83
2017-12-13T12:33:14.444Z,99685.33
2017-12-13T12:34:20.335Z,99679.71
2017-12-13T12:35:26.498Z,99673.87
2017-12-13T12:36:32.345Z,99677.47
2017-12-13T12:37:38.573Z,99660.38
2017-12-13T12:38:44.553Z,99674.86
2017-12-13T12:39:50.741Z,99668.70
2017-12-13T12:40:56.945Z,99663.50
2017-12-13T12:42:03.164Z,99666.42